sensor_id;sensor_type;location;lat;lon;timestamp;temperature;humidity
40600;DHT22;26309;50.924;4.754;2022-12-10T00:01:14;1.70;99.90
40600;DHT22;26309;50.924;4.754;2022-12-10T00:03:41;1.70;99.90
40600;DHT22;26309;50.924;4.754;2022-12-10T00:06:10;1.70;99.90
40600;DHT22;26309;50.924;4.754;2022-12-10T00:08:36;1.70;99.90
40600;DHT22;26309;50.924;4.754;2022-12-10T00:11:08;1.80;99.90
40600;DHT22;26309;50.924;4.754;2022-12-10T00:13:36;1.90;99.90
40600;DHT22;26309;50.924;4.754;2022-12-10T00:16:05;1.70;99.90
40600;DHT22;26309;50.924;4.754;2022-12-10T00:18:32;1.30;99.90
40600;DHT22;26309;50.924;4.754;2022-12-10T00:20:58;1.40;99.90
40600;DHT22;26309;50.924;4.754;2022-12-10T00:23:23;1.50;99.90
40600;DHT22;26309;50.924;4.754;2022-12-10T00:25:50;1.50;99.90
40600;DHT22;26309;50.924;4.754;2022-12-10T00:28:16;1.60;99.90
40600;DHT22;26309;50.924;4.754;2022-12-10T00:30:41;1.60;99.90
40600;DHT22;26309;50.924;4.754;2022-12-10T00:33:07;1.70;99.90
40600;DHT22;26309;50.924;4.754;2022-12-10T00:35:35;1.80;99.90
40600;DHT22;26309;50.924;4.754;2022-12-10T00:38:01;2.00;99.90
40600;DHT22;26309;50.924;4.754;2022-12-10T00:40:27;1.90;99.90
40600;DHT22;26309;50.924;4.754;2022-12-10T00:42:53;1.80;99.90
40600;DHT22;26309;50.924;4.754;2022-12-10T00:45:19;1.60;99.90
40600;DHT22;26309;50.924;4.754;2022-12-10T00:47:45;1.80;99.90
40600;DHT22;26309;50.924;4.754;2022-12-10T00:50:11;1.70;99.90
40600;DHT22;26309;50.924;4.754;2022-12-10T00:52:36;1.80;99.90
40600;DHT22;26309;50.924;4.754;2022-12-10T00:55:03;1.80;99.90
40600;DHT22;26309;50.924;4.754;2022-12-10T00:57:29;1.30;99.90
40600;DHT22;26309;50.924;4.754;2022-12-10T00:59:54;1.30;99.90
40600;DHT22;26309;50.924;4.754;2022-12-10T01:02:21;1.20;99.90
40600;DHT22;26309;50.924;4.754;2022-12-10T01:04:47;1.20;99.90
40600;DHT22;26309;50.924;4.754;2022-12-10T01:07:17;1.30;99.90
40600;DHT22;26309;50.924;4.754;2022-12-10T01:09:43;1.60;99.90
40600;DHT22;26309;50.924;4.754;2022-12-10T01:12:08;1.60;99.90
40600;DHT22;26309;50.924;4.754;2022-12-10T01:14:34;1.50;99.90
40600;DHT22;26309;50.924;4.754;2022-12-10T01:17:02;1.50;99.90
40600;DHT22;26309;50.924;4.754;2022-12-10T01:19:29;1.60;99.90
40600;DHT22;26309;50.924;4.754;2022-12-10T01:21:56;1.60;99.90
40600;DHT22;26309;50.924;4.754;2022-12-10T01:24:23;1.40;99.90
40600;DHT22;26309;50.924;4.754;2022-12-10T01:26:50;1.50;99.90
40600;DHT22;26309;50.924;4.754;2022-12-10T01:29:18;1.40;99.90
40600;DHT22;26309;50.924;4.754;2022-12-10T01:31:44;1.40;99.90
40600;DHT22;26309;50.924;4.754;2022-12-10T01:34:13;1.50;99.90
40600;DHT22;26309;50.924;4.754;2022-12-10T01:36:42;1.60;99.90
40600;DHT22;26309;50.924;4.754;2022-12-10T01:39:10;1.60;99.90
40600;DHT22;26309;50.924;4.754;2022-12-10T01:41:44;1.60;99.90
40600;DHT22;26309;50.924;4.754;2022-12-10T01:46:41;1.60;99.90
40600;DHT22;26309;50.924;4.754;2022-12-10T01:49:13;1.60;99.90
40600;DHT22;26309;50.924;4.754;2022-12-10T01:51:41;1.40;99.90
40600;DHT22;26309;50.924;4.754;2022-12-10T01:54:15;1.40;99.90
40600;DHT22;26309;50.924;4.754;2022-12-10T01:56:47;1.20;99.90
40600;DHT22;26309;50.924;4.754;2022-12-10T01:59:15;1.20;99.90
40600;DHT22;26309;50.924;4.754;2022-12-10T02:07:42;1.40;99.90
40600;DHT22;26309;50.924;4.754;2022-12-10T02:18:29;1.40;99.90
40600;DHT22;26309;50.924;4.754;2022-12-10T02:21:00;1.40;99.90
40600;DHT22;26309;50.924;4.754;2022-12-10T02:23:32;1.30;99.90
40600;DHT22;26309;50.924;4.754;2022-12-10T02:31:51;1.20;99.90
40600;DHT22;26309;50.924;4.754;2022-12-10T02:34:19;1.10;99.90
40600;DHT22;26309;50.924;4.754;2022-12-10T02:36:48;1.00;99.90
40600;DHT22;26309;50.924;4.754;2022-12-10T02:39:20;0.90;99.90
40600;DHT22;26309;50.924;4.754;2022-12-10T02:41:51;1.00;99.90
40600;DHT22;26309;50.924;4.754;2022-12-10T02:44:19;1.10;99.90
40600;DHT22;26309;50.924;4.754;2022-12-10T02:46:47;1.20;99.90
40600;DHT22;26309;50.924;4.754;2022-12-10T02:49:15;1.20;99.90
40600;DHT22;26309;50.924;4.754;2022-12-10T02:51:42;1.30;99.90
40600;DHT22;26309;50.924;4.754;2022-12-10T02:54:34;1.40;99.90
40600;DHT22;26309;50.924;4.754;2022-12-10T03:11:17;1.50;99.90
40600;DHT22;26309;50.924;4.754;2022-12-10T03:16:36;1.40;99.90
40600;DHT22;26309;50.924;4.754;2022-12-10T03:19:07;1.50;99.90
40600;DHT22;26309;50.924;4.754;2022-12-10T03:21:38;1.50;99.90
40600;DHT22;26309;50.924;4.754;2022-12-10T03:24:05;1.40;99.90
40600;DHT22;26309;50.924;4.754;2022-12-10T03:26:32;1.50;99.90
40600;DHT22;26309;50.924;4.754;2022-12-10T03:29:05;1.60;99.90
40600;DHT22;26309;50.924;4.754;2022-12-10T03:31:34;1.40;99.90
40600;DHT22;26309;50.924;4.754;2022-12-10T03:34:01;1.50;99.90
40600;DHT22;26309;50.924;4.754;2022-12-10T03:36:29;1.20;99.90
40600;DHT22;26309;50.924;4.754;2022-12-10T03:38:56;0.90;99.90
40600;DHT22;26309;50.924;4.754;2022-12-10T03:41:23;0.80;99.90
40600;DHT22;26309;50.924;4.754;2022-12-10T03:43:54;0.80;99.90
40600;DHT22;26309;50.924;4.754;2022-12-10T03:46:20;0.70;99.90
40600;DHT22;26309;50.924;4.754;2022-12-10T03:48:46;0.80;99.90
40600;DHT22;26309;50.924;4.754;2022-12-10T03:51:12;0.90;99.90
40600;DHT22;26309;50.924;4.754;2022-12-10T03:53:39;1.00;99.90
40600;DHT22;26309;50.924;4.754;2022-12-10T03:56:05;0.90;99.90
40600;DHT22;26309;50.924;4.754;2022-12-10T03:58:31;0.80;99.90
40600;DHT22;26309;50.924;4.754;2022-12-10T04:00:57;1.00;99.90
40600;DHT22;26309;50.924;4.754;2022-12-10T04:03:23;0.90;99.90
40600;DHT22;26309;50.924;4.754;2022-12-10T04:05:48;1.00;99.90
40600;DHT22;26309;50.924;4.754;2022-12-10T04:08:14;1.00;99.90
40600;DHT22;26309;50.924;4.754;2022-12-10T04:10:40;1.10;99.90
40600;DHT22;26309;50.924;4.754;2022-12-10T04:13:06;1.20;99.90
40600;DHT22;26309;50.924;4.754;2022-12-10T04:15:50;1.20;99.90
40600;DHT22;26309;50.924;4.754;2022-12-10T04:18:35;1.30;99.90
40600;DHT22;26309;50.924;4.754;2022-12-10T04:21:01;1.30;99.90
40600;DHT22;26309;50.924;4.754;2022-12-10T04:23:45;1.30;99.90
40600;DHT22;26309;50.924;4.754;2022-12-10T04:26:29;1.20;99.90
40600;DHT22;26309;50.924;4.754;2022-12-10T04:29:13;1.20;99.90
40600;DHT22;26309;50.924;4.754;2022-12-10T04:31:39;1.30;99.90
40600;DHT22;26309;50.924;4.754;2022-12-10T04:34:05;1.30;99.90
40600;DHT22;26309;50.924;4.754;2022-12-10T04:36:31;1.40;99.90
40600;DHT22;26309;50.924;4.754;2022-12-10T04:38:56;1.40;99.90
40600;DHT22;26309;50.924;4.754;2022-12-10T04:41:23;1.40;99.90
40600;DHT22;26309;50.924;4.754;2022-12-10T04:43:49;1.50;99.90
40600;DHT22;26309;50.924;4.754;2022-12-10T04:46:15;1.40;99.90
40600;DHT22;26309;50.924;4.754;2022-12-10T04:48:41;1.10;99.90
40600;DHT22;26309;50.924;4.754;2022-12-10T04:51:07;1.10;99.90
40600;DHT22;26309;50.924;4.754;2022-12-10T04:53:34;1.10;99.90
40600;DHT22;26309;50.924;4.754;2022-12-10T04:56:00;1.10;99.90
40600;DHT22;26309;50.924;4.754;2022-12-10T04:58:27;1.10;99.90
40600;DHT22;26309;50.924;4.754;2022-12-10T05:01:07;1.20;99.90
40600;DHT22;26309;50.924;4.754;2022-12-10T05:03:35;1.20;99.90
40600;DHT22;26309;50.924;4.754;2022-12-10T05:06:09;1.10;99.90
40600;DHT22;26309;50.924;4.754;2022-12-10T05:08:36;1.00;99.90
40600;DHT22;26309;50.924;4.754;2022-12-10T05:11:16;1.00;99.90
40600;DHT22;26309;50.924;4.754;2022-12-10T05:13:43;1.20;99.90
40600;DHT22;26309;50.924;4.754;2022-12-10T05:16:10;1.20;99.90
40600;DHT22;26309;50.924;4.754;2022-12-10T05:18:37;1.10;99.90
40600;DHT22;26309;50.924;4.754;2022-12-10T05:21:05;1.30;99.90
40600;DHT22;26309;50.924;4.754;2022-12-10T05:23:32;1.10;99.90
40600;DHT22;26309;50.924;4.754;2022-12-10T05:26:02;1.10;99.90
40600;DHT22;26309;50.924;4.754;2022-12-10T05:28:31;1.10;99.90
40600;DHT22;26309;50.924;4.754;2022-12-10T05:30:58;1.20;99.90
40600;DHT22;26309;50.924;4.754;2022-12-10T05:33:24;1.20;99.90
40600;DHT22;26309;50.924;4.754;2022-12-10T05:35:58;1.30;99.90
40600;DHT22;26309;50.924;4.754;2022-12-10T05:38:25;1.30;99.90
40600;DHT22;26309;50.924;4.754;2022-12-10T05:40:51;1.40;99.90
40600;DHT22;26309;50.924;4.754;2022-12-10T05:43:17;1.20;99.90
40600;DHT22;26309;50.924;4.754;2022-12-10T05:45:43;1.30;99.90
40600;DHT22;26309;50.924;4.754;2022-12-10T05:48:11;1.30;99.90
40600;DHT22;26309;50.924;4.754;2022-12-10T05:50:37;1.40;99.90
40600;DHT22;26309;50.924;4.754;2022-12-10T05:53:03;1.40;99.90
40600;DHT22;26309;50.924;4.754;2022-12-10T05:55:29;1.40;99.90
40600;DHT22;26309;50.924;4.754;2022-12-10T05:58:00;1.20;99.90
40600;DHT22;26309;50.924;4.754;2022-12-10T06:00:27;1.10;99.90
40600;DHT22;26309;50.924;4.754;2022-12-10T06:02:53;1.00;99.90
40600;DHT22;26309;50.924;4.754;2022-12-10T06:05:19;1.10;99.90
40600;DHT22;26309;50.924;4.754;2022-12-10T06:07:45;1.00;99.90
40600;DHT22;26309;50.924;4.754;2022-12-10T06:10:11;1.10;99.90
40600;DHT22;26309;50.924;4.754;2022-12-10T06:12:38;1.10;99.90
40600;DHT22;26309;50.924;4.754;2022-12-10T06:15:05;1.00;99.90
40600;DHT22;26309;50.924;4.754;2022-12-10T06:17:31;0.90;99.90
40600;DHT22;26309;50.924;4.754;2022-12-10T06:19:57;0.90;99.90
40600;DHT22;26309;50.924;4.754;2022-12-10T06:22:23;0.80;99.90
40600;DHT22;26309;50.924;4.754;2022-12-10T06:24:51;0.90;99.90
40600;DHT22;26309;50.924;4.754;2022-12-10T06:27:17;1.00;99.90
40600;DHT22;26309;50.924;4.754;2022-12-10T06:29:44;0.80;99.90
40600;DHT22;26309;50.924;4.754;2022-12-10T06:32:10;0.90;99.90
40600;DHT22;26309;50.924;4.754;2022-12-10T06:34:36;0.90;99.90
40600;DHT22;26309;50.924;4.754;2022-12-10T06:37:01;0.90;99.90
40600;DHT22;26309;50.924;4.754;2022-12-10T06:39:27;1.00;99.90
40600;DHT22;26309;50.924;4.754;2022-12-10T06:41:53;1.10;99.90
40600;DHT22;26309;50.924;4.754;2022-12-10T06:44:19;1.10;99.90
40600;DHT22;26309;50.924;4.754;2022-12-10T06:46:44;1.20;99.90
40600;DHT22;26309;50.924;4.754;2022-12-10T06:49:10;1.20;99.90
40600;DHT22;26309;50.924;4.754;2022-12-10T06:51:36;1.10;99.90
40600;DHT22;26309;50.924;4.754;2022-12-10T06:54:05;1.10;99.90
40600;DHT22;26309;50.924;4.754;2022-12-10T06:56:31;0.90;99.90
40600;DHT22;26309;50.924;4.754;2022-12-10T06:58:57;1.00;99.90
40600;DHT22;26309;50.924;4.754;2022-12-10T07:01:24;1.00;99.90
40600;DHT22;26309;50.924;4.754;2022-12-10T07:03:54;1.10;99.90
40600;DHT22;26309;50.924;4.754;2022-12-10T07:06:25;1.00;99.90
40600;DHT22;26309;50.924;4.754;2022-12-10T07:08:51;1.10;99.90
40600;DHT22;26309;50.924;4.754;2022-12-10T07:11:21;1.20;99.90
40600;DHT22;26309;50.924;4.754;2022-12-10T07:13:47;1.40;99.90
40600;DHT22;26309;50.924;4.754;2022-12-10T07:16:14;1.20;99.90
40600;DHT22;26309;50.924;4.754;2022-12-10T07:18:41;1.10;99.90
40600;DHT22;26309;50.924;4.754;2022-12-10T07:21:31;1.20;99.90
40600;DHT22;26309;50.924;4.754;2022-12-10T07:24:00;1.20;99.90
40600;DHT22;26309;50.924;4.754;2022-12-10T07:26:28;1.30;99.90
40600;DHT22;26309;50.924;4.754;2022-12-10T07:28:54;1.30;99.90
40600;DHT22;26309;50.924;4.754;2022-12-10T07:31:23;1.30;99.90
40600;DHT22;26309;50.924;4.754;2022-12-10T07:33:50;1.20;99.90
40600;DHT22;26309;50.924;4.754;2022-12-10T07:36:17;1.10;99.90
40600;DHT22;26309;50.924;4.754;2022-12-10T07:38:43;1.30;99.90
40600;DHT22;26309;50.924;4.754;2022-12-10T07:41:11;1.30;99.90
40600;DHT22;26309;50.924;4.754;2022-12-10T07:43:39;1.40;99.90
40600;DHT22;26309;50.924;4.754;2022-12-10T07:46:12;1.30;99.90
40600;DHT22;26309;50.924;4.754;2022-12-10T07:48:40;1.20;99.90
40600;DHT22;26309;50.924;4.754;2022-12-10T07:51:07;1.10;99.90
40600;DHT22;26309;50.924;4.754;2022-12-10T07:53:33;1.10;99.90
40600;DHT22;26309;50.924;4.754;2022-12-10T07:55:59;1.10;99.90
40600;DHT22;26309;50.924;4.754;2022-12-10T07:58:25;1.00;99.90
40600;DHT22;26309;50.924;4.754;2022-12-10T08:00:51;1.00;99.90
40600;DHT22;26309;50.924;4.754;2022-12-10T08:03:17;1.00;99.90
40600;DHT22;26309;50.924;4.754;2022-12-10T08:05:43;1.00;99.90
40600;DHT22;26309;50.924;4.754;2022-12-10T08:08:08;1.10;99.90
40600;DHT22;26309;50.924;4.754;2022-12-10T08:10:35;1.10;99.90
40600;DHT22;26309;50.924;4.754;2022-12-10T08:13:01;1.20;99.90
40600;DHT22;26309;50.924;4.754;2022-12-10T08:15:27;1.20;99.90
40600;DHT22;26309;50.924;4.754;2022-12-10T08:17:56;1.30;99.90
40600;DHT22;26309;50.924;4.754;2022-12-10T08:20:23;1.40;99.90
40600;DHT22;26309;50.924;4.754;2022-12-10T08:22:49;1.30;99.90
40600;DHT22;26309;50.924;4.754;2022-12-10T08:25:14;1.20;99.90
40600;DHT22;26309;50.924;4.754;2022-12-10T08:27:41;1.20;99.90
40600;DHT22;26309;50.924;4.754;2022-12-10T08:30:07;1.30;99.90
40600;DHT22;26309;50.924;4.754;2022-12-10T08:32:33;1.30;99.90
40600;DHT22;26309;50.924;4.754;2022-12-10T08:34:59;1.30;99.90
40600;DHT22;26309;50.924;4.754;2022-12-10T08:37:25;1.30;99.90
40600;DHT22;26309;50.924;4.754;2022-12-10T08:39:50;1.20;99.90
40600;DHT22;26309;50.924;4.754;2022-12-10T08:42:16;1.20;99.90
40600;DHT22;26309;50.924;4.754;2022-12-10T08:44:42;1.40;99.90
40600;DHT22;26309;50.924;4.754;2022-12-10T08:47:08;1.40;99.90
40600;DHT22;26309;50.924;4.754;2022-12-10T08:49:34;1.30;99.90
40600;DHT22;26309;50.924;4.754;2022-12-10T08:52:00;1.30;99.90
40600;DHT22;26309;50.924;4.754;2022-12-10T08:54:26;1.40;99.90
40600;DHT22;26309;50.924;4.754;2022-12-10T08:56:52;1.40;99.90
40600;DHT22;26309;50.924;4.754;2022-12-10T08:59:17;1.30;99.90
40600;DHT22;26309;50.924;4.754;2022-12-10T09:01:43;1.20;99.90
40600;DHT22;26309;50.924;4.754;2022-12-10T09:04:09;1.20;99.90
40600;DHT22;26309;50.924;4.754;2022-12-10T09:06:35;1.30;99.90
40600;DHT22;26309;50.924;4.754;2022-12-10T09:09:01;1.40;99.90
40600;DHT22;26309;50.924;4.754;2022-12-10T09:11:32;1.40;99.90
40600;DHT22;26309;50.924;4.754;2022-12-10T09:13:58;1.30;99.90
40600;DHT22;26309;50.924;4.754;2022-12-10T09:16:33;1.30;99.90
40600;DHT22;26309;50.924;4.754;2022-12-10T09:19:00;1.30;99.90
40600;DHT22;26309;50.924;4.754;2022-12-10T09:21:26;1.30;99.90
40600;DHT22;26309;50.924;4.754;2022-12-10T09:23:53;1.40;99.90
40600;DHT22;26309;50.924;4.754;2022-12-10T09:26:19;1.60;99.90
40600;DHT22;26309;50.924;4.754;2022-12-10T09:28:46;1.80;99.90
40600;DHT22;26309;50.924;4.754;2022-12-10T09:31:13;1.70;99.90
40600;DHT22;26309;50.924;4.754;2022-12-10T09:33:40;1.50;99.90
40600;DHT22;26309;50.924;4.754;2022-12-10T09:36:07;1.30;99.90
40600;DHT22;26309;50.924;4.754;2022-12-10T09:38:35;1.30;99.90
40600;DHT22;26309;50.924;4.754;2022-12-10T09:41:04;1.40;99.90
40600;DHT22;26309;50.924;4.754;2022-12-10T09:44:02;1.40;99.90
40600;DHT22;26309;50.924;4.754;2022-12-10T09:46:59;1.30;99.90
40600;DHT22;26309;50.924;4.754;2022-12-10T09:51:57;1.50;99.90
40600;DHT22;26309;50.924;4.754;2022-12-10T09:56:57;1.70;99.90
40600;DHT22;26309;50.924;4.754;2022-12-10T09:59:48;1.80;99.90
40600;DHT22;26309;50.924;4.754;2022-12-10T10:02:33;1.90;99.90
40600;DHT22;26309;50.924;4.754;2022-12-10T10:07:36;1.90;99.90
40600;DHT22;26309;50.924;4.754;2022-12-10T10:10:16;2.00;99.90
40600;DHT22;26309;50.924;4.754;2022-12-10T10:12:45;1.90;99.90
40600;DHT22;26309;50.924;4.754;2022-12-10T10:15:16;1.90;99.90
40600;DHT22;26309;50.924;4.754;2022-12-10T10:17:44;2.00;99.90
40600;DHT22;26309;50.924;4.754;2022-12-10T10:20:13;2.10;99.90
40600;DHT22;26309;50.924;4.754;2022-12-10T10:22:40;2.10;99.90
40600;DHT22;26309;50.924;4.754;2022-12-10T10:25:16;1.90;99.90
40600;DHT22;26309;50.924;4.754;2022-12-10T10:27:42;1.90;99.90
40600;DHT22;26309;50.924;4.754;2022-12-10T10:30:20;1.90;99.90
40600;DHT22;26309;50.924;4.754;2022-12-10T10:32:52;1.90;99.90
40600;DHT22;26309;50.924;4.754;2022-12-10T10:35:34;1.90;99.90
40600;DHT22;26309;50.924;4.754;2022-12-10T10:38:13;2.00;99.90
40600;DHT22;26309;50.924;4.754;2022-12-10T10:40:43;2.10;99.90
40600;DHT22;26309;50.924;4.754;2022-12-10T10:48:47;2.00;99.90
40600;DHT22;26309;50.924;4.754;2022-12-10T10:53:44;2.10;99.90
40600;DHT22;26309;50.924;4.754;2022-12-10T10:56:23;2.30;99.90
40600;DHT22;26309;50.924;4.754;2022-12-10T10:59:02;2.50;99.90
40600;DHT22;26309;50.924;4.754;2022-12-10T11:01:54;2.50;99.90
40600;DHT22;26309;50.924;4.754;2022-12-10T11:04:49;2.60;99.90
40600;DHT22;26309;50.924;4.754;2022-12-10T11:07:37;2.40;99.90
40600;DHT22;26309;50.924;4.754;2022-12-10T11:10:20;2.70;99.90
40600;DHT22;26309;50.924;4.754;2022-12-10T11:12:58;2.50;99.90
40600;DHT22;26309;50.924;4.754;2022-12-10T11:15:37;2.40;99.90
40600;DHT22;26309;50.924;4.754;2022-12-10T11:18:34;2.40;99.90
40600;DHT22;26309;50.924;4.754;2022-12-10T11:21:02;2.50;99.90
40600;DHT22;26309;50.924;4.754;2022-12-10T11:23:40;2.70;99.90
40600;DHT22;26309;50.924;4.754;2022-12-10T11:26:47;2.80;99.90
40600;DHT22;26309;50.924;4.754;2022-12-10T11:32:30;2.80;99.90
40600;DHT22;26309;50.924;4.754;2022-12-10T11:37:36;2.30;99.90
40600;DHT22;26309;50.924;4.754;2022-12-10T11:42:53;2.30;99.90
40600;DHT22;26309;50.924;4.754;2022-12-10T11:51:04;2.70;99.90
40600;DHT22;26309;50.924;4.754;2022-12-10T11:56:20;2.90;99.90
40600;DHT22;26309;50.924;4.754;2022-12-10T12:14:48;2.70;99.90
40600;DHT22;26309;50.924;4.754;2022-12-10T12:17:37;2.80;99.90
40600;DHT22;26309;50.924;4.754;2022-12-10T12:20:17;2.50;99.90
40600;DHT22;26309;50.924;4.754;2022-12-10T12:22:54;2.10;99.90
40600;DHT22;26309;50.924;4.754;2022-12-10T12:25:39;2.40;99.90
40600;DHT22;26309;50.924;4.754;2022-12-10T12:28:10;2.50;99.90
40600;DHT22;26309;50.924;4.754;2022-12-10T12:30:39;2.60;99.90
40600;DHT22;26309;50.924;4.754;2022-12-10T12:33:11;2.70;99.90
40600;DHT22;26309;50.924;4.754;2022-12-10T12:36:02;2.70;99.90
40600;DHT22;26309;50.924;4.754;2022-12-10T12:41:14;2.70;99.90
40600;DHT22;26309;50.924;4.754;2022-12-10T12:43:49;2.80;99.90
40600;DHT22;26309;50.924;4.754;2022-12-10T12:46:29;2.80;99.90
40600;DHT22;26309;50.924;4.754;2022-12-10T12:51:43;2.80;99.90
40600;DHT22;26309;50.924;4.754;2022-12-10T12:54:11;2.80;99.90
40600;DHT22;26309;50.924;4.754;2022-12-10T12:59:51;2.90;99.90
40600;DHT22;26309;50.924;4.754;2022-12-10T13:05:41;3.20;99.90
40600;DHT22;26309;50.924;4.754;2022-12-10T13:13:35;2.60;99.90
40600;DHT22;26309;50.924;4.754;2022-12-10T13:21:59;3.10;99.90
40600;DHT22;26309;50.924;4.754;2022-12-10T13:24:46;3.20;99.90
40600;DHT22;26309;50.924;4.754;2022-12-10T13:27:26;3.30;99.90
40600;DHT22;26309;50.924;4.754;2022-12-10T13:35:22;3.20;99.90
40600;DHT22;26309;50.924;4.754;2022-12-10T13:46:32;3.20;99.90
40600;DHT22;26309;50.924;4.754;2022-12-10T13:49:04;3.20;99.90
40600;DHT22;26309;50.924;4.754;2022-12-10T13:52:06;3.20;99.90
40600;DHT22;26309;50.924;4.754;2022-12-10T14:00:06;3.20;99.90
40600;DHT22;26309;50.924;4.754;2022-12-10T14:02:55;3.30;99.90
40600;DHT22;26309;50.924;4.754;2022-12-10T14:08:20;3.30;99.90
40600;DHT22;26309;50.924;4.754;2022-12-10T14:10:50;3.20;99.90
40600;DHT22;26309;50.924;4.754;2022-12-10T14:13:19;3.10;99.90
40600;DHT22;26309;50.924;4.754;2022-12-10T14:15:56;3.20;99.90
40600;DHT22;26309;50.924;4.754;2022-12-10T14:18:24;3.10;99.90
40600;DHT22;26309;50.924;4.754;2022-12-10T14:20:53;3.10;99.90
40600;DHT22;26309;50.924;4.754;2022-12-10T14:23:28;3.00;99.90
40600;DHT22;26309;50.924;4.754;2022-12-10T14:26:14;3.00;99.90
40600;DHT22;26309;50.924;4.754;2022-12-10T14:28:55;3.20;99.90
40600;DHT22;26309;50.924;4.754;2022-12-10T14:31:44;3.00;99.90
40600;DHT22;26309;50.924;4.754;2022-12-10T14:34:16;2.90;99.90
40600;DHT22;26309;50.924;4.754;2022-12-10T14:36:47;3.00;99.90
40600;DHT22;26309;50.924;4.754;2022-12-10T14:39:16;3.00;99.90
40600;DHT22;26309;50.924;4.754;2022-12-10T14:41:43;3.20;99.90
40600;DHT22;26309;50.924;4.754;2022-12-10T14:44:14;3.20;99.90
40600;DHT22;26309;50.924;4.754;2022-12-10T14:46:41;3.20;99.90
40600;DHT22;26309;50.924;4.754;2022-12-10T14:49:19;3.20;99.90
40600;DHT22;26309;50.924;4.754;2022-12-10T14:51:45;3.10;99.90
40600;DHT22;26309;50.924;4.754;2022-12-10T14:54:32;3.10;99.90
40600;DHT22;26309;50.924;4.754;2022-12-10T14:57:01;3.20;99.90
40600;DHT22;26309;50.924;4.754;2022-12-10T14:59:40;3.00;99.90
40600;DHT22;26309;50.924;4.754;2022-12-10T15:02:24;3.00;99.90
40600;DHT22;26309;50.924;4.754;2022-12-10T15:04:51;3.00;99.90
40600;DHT22;26309;50.924;4.754;2022-12-10T15:07:21;3.00;99.90
40600;DHT22;26309;50.924;4.754;2022-12-10T15:09:49;3.10;99.90
40600;DHT22;26309;50.924;4.754;2022-12-10T15:12:34;3.10;99.90
40600;DHT22;26309;50.924;4.754;2022-12-10T15:15:12;3.10;99.90
40600;DHT22;26309;50.924;4.754;2022-12-10T15:17:41;3.10;99.90
40600;DHT22;26309;50.924;4.754;2022-12-10T15:20:38;3.10;99.90
40600;DHT22;26309;50.924;4.754;2022-12-10T15:26:03;2.90;99.90
40600;DHT22;26309;50.924;4.754;2022-12-10T15:31:30;2.70;99.90
40600;DHT22;26309;50.924;4.754;2022-12-10T15:34:05;2.70;99.90
40600;DHT22;26309;50.924;4.754;2022-12-10T15:41:55;2.70;99.90
40600;DHT22;26309;50.924;4.754;2022-12-10T15:47:09;2.80;99.90
40600;DHT22;26309;50.924;4.754;2022-12-10T15:49:38;2.70;99.90
40600;DHT22;26309;50.924;4.754;2022-12-10T15:52:04;2.70;99.90
40600;DHT22;26309;50.924;4.754;2022-12-10T15:54:36;2.80;99.90
40600;DHT22;26309;50.924;4.754;2022-12-10T15:57:24;2.80;99.90
40600;DHT22;26309;50.924;4.754;2022-12-10T15:59:53;2.60;99.90
40600;DHT22;26309;50.924;4.754;2022-12-10T16:07:40;2.80;99.90
40600;DHT22;26309;50.924;4.754;2022-12-10T16:10:07;2.80;99.90
40600;DHT22;26309;50.924;4.754;2022-12-10T16:12:35;2.80;99.90
40600;DHT22;26309;50.924;4.754;2022-12-10T16:15:01;2.70;99.90
40600;DHT22;26309;50.924;4.754;2022-12-10T16:17:29;2.70;99.90
40600;DHT22;26309;50.924;4.754;2022-12-10T16:22:40;2.60;99.90
40600;DHT22;26309;50.924;4.754;2022-12-10T16:25:06;2.50;99.90
40600;DHT22;26309;50.924;4.754;2022-12-10T16:27:32;2.50;99.90
40600;DHT22;26309;50.924;4.754;2022-12-10T16:32:37;2.80;99.90
40600;DHT22;26309;50.924;4.754;2022-12-10T16:35:03;2.60;99.90
40600;DHT22;26309;50.924;4.754;2022-12-10T16:37:29;2.50;99.90
40600;DHT22;26309;50.924;4.754;2022-12-10T16:39:55;2.50;99.90
40600;DHT22;26309;50.924;4.754;2022-12-10T16:42:20;2.60;99.90
40600;DHT22;26309;50.924;4.754;2022-12-10T16:44:46;2.60;99.90
40600;DHT22;26309;50.924;4.754;2022-12-10T16:47:12;2.60;99.90
40600;DHT22;26309;50.924;4.754;2022-12-10T16:49:38;2.70;99.90
40600;DHT22;26309;50.924;4.754;2022-12-10T16:52:04;2.70;99.90
40600;DHT22;26309;50.924;4.754;2022-12-10T16:54:30;2.70;99.90
40600;DHT22;26309;50.924;4.754;2022-12-10T16:56:56;2.80;99.90
40600;DHT22;26309;50.924;4.754;2022-12-10T16:59:23;2.80;99.90
40600;DHT22;26309;50.924;4.754;2022-12-10T17:01:49;2.60;99.90
40600;DHT22;26309;50.924;4.754;2022-12-10T17:04:15;2.60;99.90
40600;DHT22;26309;50.924;4.754;2022-12-10T17:06:41;2.60;99.90
40600;DHT22;26309;50.924;4.754;2022-12-10T17:09:07;2.80;99.90
40600;DHT22;26309;50.924;4.754;2022-12-10T17:11:40;2.90;99.90
40600;DHT22;26309;50.924;4.754;2022-12-10T17:14:25;2.90;99.90
40600;DHT22;26309;50.924;4.754;2022-12-10T17:16:54;2.90;99.90
40600;DHT22;26309;50.924;4.754;2022-12-10T17:19:21;2.70;99.90
40600;DHT22;26309;50.924;4.754;2022-12-10T17:21:47;2.50;99.90
40600;DHT22;26309;50.924;4.754;2022-12-10T17:24:13;2.50;99.90
40600;DHT22;26309;50.924;4.754;2022-12-10T17:26:42;2.60;99.90
40600;DHT22;26309;50.924;4.754;2022-12-10T17:29:14;2.70;99.90
40600;DHT22;26309;50.924;4.754;2022-12-10T17:31:41;2.80;99.90
40600;DHT22;26309;50.924;4.754;2022-12-10T17:34:08;2.70;99.90
40600;DHT22;26309;50.924;4.754;2022-12-10T17:36:34;2.70;99.90
40600;DHT22;26309;50.924;4.754;2022-12-10T17:39:00;2.90;99.90
40600;DHT22;26309;50.924;4.754;2022-12-10T17:41:25;2.90;99.90
40600;DHT22;26309;50.924;4.754;2022-12-10T17:43:51;2.70;99.90
40600;DHT22;26309;50.924;4.754;2022-12-10T17:46:23;2.80;99.90
40600;DHT22;26309;50.924;4.754;2022-12-10T17:48:50;2.80;99.90
40600;DHT22;26309;50.924;4.754;2022-12-10T17:51:16;2.70;99.90
40600;DHT22;26309;50.924;4.754;2022-12-10T17:53:43;2.50;99.90
40600;DHT22;26309;50.924;4.754;2022-12-10T17:56:18;2.40;99.90
40600;DHT22;26309;50.924;4.754;2022-12-10T17:58:46;2.40;99.90
40600;DHT22;26309;50.924;4.754;2022-12-10T18:01:11;2.50;99.90
40600;DHT22;26309;50.924;4.754;2022-12-10T18:03:39;2.60;99.90
40600;DHT22;26309;50.924;4.754;2022-12-10T18:06:26;2.60;99.90
40600;DHT22;26309;50.924;4.754;2022-12-10T18:08:54;2.70;99.90
40600;DHT22;26309;50.924;4.754;2022-12-10T18:11:24;2.60;99.90
40600;DHT22;26309;50.924;4.754;2022-12-10T18:13:50;2.70;99.90
40600;DHT22;26309;50.924;4.754;2022-12-10T18:16:19;2.60;99.90
40600;DHT22;26309;50.924;4.754;2022-12-10T18:18:46;2.50;99.90
40600;DHT22;26309;50.924;4.754;2022-12-10T18:21:16;2.60;99.90
40600;DHT22;26309;50.924;4.754;2022-12-10T18:23:45;2.60;99.90
40600;DHT22;26309;50.924;4.754;2022-12-10T18:26:13;2.70;99.90
40600;DHT22;26309;50.924;4.754;2022-12-10T18:31:11;2.70;99.90
40600;DHT22;26309;50.924;4.754;2022-12-10T18:33:43;2.50;99.90
40600;DHT22;26309;50.924;4.754;2022-12-10T18:36:22;2.50;99.90
40600;DHT22;26309;50.924;4.754;2022-12-10T18:38:49;2.60;99.90
40600;DHT22;26309;50.924;4.754;2022-12-10T18:41:16;2.70;99.90
40600;DHT22;26309;50.924;4.754;2022-12-10T18:43:42;2.70;99.90